• Join FlightAware (Why Join?)
  • Login
  • US Flag 
07:58PM EDT


 

Airport Tracker/Info


-or-


 

Live Flight TrackerFlight Track Log ✈ N830QS ✈ 21-Aug-2013 ✈ KSDL - KLNK

Flight Track Log - Related Links

Times and Time Zones

All times are in EDT time to prevent confusion due to time zone crossing. See the N830QS flight status page for this flight to view local times or setup timezone preferences in your user account.

Time Position Orientation Groundspeed Altitude Reporting Facility
EDT Latitude Longitude Course Direction KTS MPH feet Rate Location/Type
01:03PM 33.6167 -111.9167 285° West 158 182 2,400  Level Phoenix TRACON
01:04PM 33.6328 -111.9894 285° West 187 215 5,400 1,800 Climbing Albuquerque Center
01:05PM 33.6864 -111.9650 21° North 223 257 6,900 2,460 Climbing Albuquerque Center
01:06PM 33.7589 -111.9231 26° Northeast 240 276 10,500 3,060 Climbing Albuquerque Center
01:07PM 33.8311 -111.9108 North 262 302 13,300 2,160 Climbing Albuquerque Center
01:09PM 33.9002 -111.7905 55° Northeast  Level Estimated
01:09PM 33.9969 -111.8797 55° Northeast 305 351 17,300  Level Albuquerque Center
01:10PM 34.0706 -111.8133 37° Northeast 319 367 18,800 1,200 Climbing Albuquerque Center
01:12PM 34.1419 -111.7256 45° Northeast 330 380 19,900 960 Climbing Albuquerque Center
01:13PM 34.2047 -111.6511 44° Northeast 345 397 20,800 960 Climbing Albuquerque Center
01:14PM 34.2750 -111.5661 45° Northeast 354 407 21,900 960 Climbing Albuquerque Center
01:15PM 34.3467 -111.4811 44° Northeast 359 413 22,900 960 Climbing Albuquerque Center
01:16PM 34.4308 -111.3789 45° Northeast 359 413 24,000 900 Climbing Albuquerque Center
01:17PM 34.5006 -111.2944 45° Northeast 356 410 24,800 840 Climbing Albuquerque Center
01:18PM 34.5717 -111.2081 45° Northeast 360 414 25,800 900 Climbing Albuquerque Center
01:19PM 34.6419 -111.1231 45° Northeast 359 413 26,700 720 Climbing Albuquerque Center
01:20PM 34.7122 -111.0364 45° Northeast 359 413 27,400 660 Climbing Albuquerque Center
01:21PM 34.7833 -110.9486 45° Northeast 362 417 28,100 720 Climbing Albuquerque Center
01:22PM 34.8761 -110.8347 45° Northeast 389 448 29,000 720 Climbing Albuquerque Center
01:23PM 34.9561 -110.7331 46° Northeast 407 468 29,700 720 Climbing Albuquerque Center
01:24PM 35.0339 -110.6364 45° Northeast 414 476 30,500 900 Climbing Albuquerque Center
01:25PM 35.1269 -110.5242 45° Northeast 419 482 31,600 960 Climbing Albuquerque Center
01:26PM 35.2039 -110.4267 46° Northeast 417 480 32,600 960 Climbing Albuquerque Center
01:27PM 35.2958 -110.3125 45° Northeast 419 482 33,700 960 Climbing Albuquerque Center
01:28PM 35.3742 -110.2158 45° Northeast 418 481 34,700 600 Climbing Albuquerque Center
01:29PM 35.4661 -110.1000 46° Northeast 423 487 35,000 120 Climbing Albuquerque Center
01:30PM 35.5478 -109.9956 46° Northeast 437 503 35,000 420 Level Albuquerque Center
01:31PM 35.6450 -109.8750 45° Northeast 442 509 35,900 840 Climbing Albuquerque Center
01:32PM 35.7192 -109.7714 49° Northeast 427 491 36,800 900 Climbing Albuquerque Center
01:33PM 35.7789 -109.6578 57° Northeast 416 479 37,800 960 Climbing Albuquerque Center
01:34PM 35.8431 -109.5225 60° Northeast 411 473 38,900 960 Climbing Albuquerque Center
01:35PM 35.8981 -109.4103 59° Northeast 403 464 39,800 840 Climbing Albuquerque Center
01:36PM 35.9606 -109.2781 60° Northeast 400 460 40,700 540 Climbing Albuquerque Center
01:37PM 36.0153 -109.1650 59° Northeast 399 459 41,000 120 Climbing Albuquerque Center
01:38PM 36.0769 -109.0389 59° Northeast 426 490 41,000  Level Albuquerque Center
01:39PM 36.1381 -108.9122 59° Northeast 427 491 41,000  Level Albuquerque Center
01:40PM 36.2067 -108.7697 59° Northeast 437 503 41,000  Level Albuquerque Center
01:41PM 36.2731 -108.6247 60° Northeast 435 501 41,000  Level Albuquerque Center
01:43PM 36.3319 -108.5003 60° Northeast 435 501 41,000  Level Albuquerque Center
01:44PM 36.3992 -108.3542 60° Northeast 436 502 41,000  Level Albuquerque Center
01:45PM 36.4556 -108.2325 60° Northeast 429 494 41,000  Level Albuquerque Center
01:46PM 36.5122 -108.1117 60° Northeast 424 488 41,000  Level Albuquerque Center
01:47PM 36.5781 -107.9686 60° Northeast 425 489 41,000  Level Albuquerque Center
01:48PM 36.6614 -107.7869 60° Northeast 421 484 41,000  Level Denver Center
01:49PM 36.7272 -107.6447 60° Northeast 424 488 41,000  Level Denver Center
01:50PM 36.7817 -107.5219 61° Northeast 423 487 41,000  Level Denver Center
01:51PM 36.8464 -107.3825 60° Northeast 418 481 41,000  Level Denver Center
01:52PM 36.9017 -107.2597 61° Northeast 422 486 41,000  Level Denver Center
01:53PM 36.9661 -107.1164 61° Northeast 423 487 41,000  Level Denver Center
01:54PM 37.0208 -106.9936 61° Northeast 423 487 41,000  Level Denver Center
01:55PM 37.0842 -106.8497 61° Northeast 423 487 41,000  Level Denver Center
01:56PM 37.1406 -106.7281 60° Northeast 423 487 41,000  Level Denver Center
01:57PM 37.2019 -106.5858 62° Northeast 417 480 41,000  Level Denver Center
01:59PM 37.2556 -106.4586 62° Northeast  Level FlightAware Approximate
02:00PM 37.3186 -106.3203 62° Northeast 418 481 41,000  Level Denver Center
02:01PM 37.3714 -106.1956 62° Northeast 421 484 41,000  Level Denver Center
02:02PM 37.4222 -106.0731 62° Northeast 415 478 41,000  Level Denver Center
02:03PM 37.4869 -105.9292 60° Northeast 421 484 41,000  Level Denver Center
02:04PM 37.5400 -105.8075 61° Northeast 416 479 41,000  Level Denver Center
02:05PM 37.6050 -105.6597 61° Northeast 421 484 41,000  Level Denver Center
02:06PM 37.6567 -105.5361 62° Northeast 416 479 41,000  Level Denver Center
02:07PM 37.7189 -105.3914 61° Northeast 419 482 41,000  Level Denver Center
02:08PM 37.7728 -105.2675 61° Northeast 419 482 41,000  Level Denver Center
02:09PM 37.8331 -105.1203 63° Northeast 421 484 41,000  Level Denver Center
02:10PM 37.8861 -104.9950 62° Northeast 421 484 41,000  Level Denver Center
02:11PM 37.9392 -104.8692 62° Northeast 423 487 41,000  Level Denver Center
02:12PM 38.0014 -104.7228 62° Northeast 421 484 41,000  Level Denver Center
02:13PM 38.0542 -104.5964 62° Northeast 421 484 41,000  Level Denver Center
02:14PM 38.1150 -104.4483 62° Northeast 423 487 41,000  Level Denver Center
02:15PM 38.1675 -104.3217 62° Northeast 421 484 41,000  Level Denver Center
02:16PM 38.2281 -104.1739 62° Northeast 420 483 41,000  Level Denver Center
02:17PM 38.2806 -104.0469 62° Northeast 421 484 41,000  Level Denver Center
02:18PM 38.3406 -103.8986 63° Northeast 420 483 41,000  Level Denver Center
02:19PM 38.3917 -103.7719 63° Northeast 419 482 41,000  Level Denver Center
02:20PM 38.4428 -103.6453 63° Northeast 419 482 41,000  Level Denver Center
02:21PM 38.5017 -103.4969 63° Northeast 420 483 41,000  Level Denver Center
02:22PM 38.5517 -103.3714 63° Northeast 415 478 41,000  Level Denver Center
02:23PM 38.6119 -103.2219 63° Northeast 418 481 41,000  Level Denver Center
02:24PM 38.6633 -103.0906 63° Northeast 416 479 41,000  Level Denver Center
02:25PM 38.7156 -102.9589 63° Northeast 415 478 41,000  Level Denver Center
02:26PM 38.7681 -102.8258 63° Northeast 419 482 41,000  Level Denver Center
02:27PM 38.8292 -102.6694 63° Northeast 416 479 41,000  Level Denver Center
02:28PM 38.8783 -102.5431 63° Northeast 421 484 41,000  Level Denver Center
02:30PM 38.9303 -102.4106 63° Northeast 425 489 41,000  Level Denver Center
02:31PM 38.9894 -102.2564 64° Northeast 428 493 41,000  Level Denver Center
02:32PM 39.0392 -102.1256 64° Northeast 426 490 41,000  Level Denver Center
02:33PM 39.0986 -101.9728 63° Northeast 427 491 41,000  Level Denver Center
02:34PM 39.1489 -101.8419 64° Northeast 428 493 41,000 -360 Level Denver Center
02:35PM 39.2075 -101.6825 65° Northeast 431 496 40,300 -840 Descending Denver Center
02:36PM 39.2567 -101.5519 64° Northeast 426 490 39,300 -1,020 Descending Denver Center
02:37PM 39.3144 -101.4000 64° Northeast 422 486 38,200 -1,020 Descending Denver Center
02:38PM 39.3636 -101.2678 64° Northeast 426 490 37,300 -600 Descending Denver Center
02:39PM 39.4128 -101.1350 64° Northeast 429 494 37,000 -180 Descending Denver Center
02:40PM 39.4714 -100.9769 64° Northeast 436 502 37,000  Level Denver Center
02:41PM 39.5217 -100.8392 65° Northeast 442 509 37,000  Level Denver Center
02:42PM 39.5806 -100.6778 65° Northeast 444 511 37,000  Level Denver Center
02:43PM 39.6300 -100.5406 65° Northeast 441 507 37,000  Level Denver Center
02:44PM 39.6897 -100.3789 64° Northeast 445 512 37,000 -300 Level Denver Center
02:45PM 39.7394 -100.2389 65° Northeast 446 513 36,400 -1,020 Descending Denver Center
02:46PM 39.7931 -100.0908 65° Northeast 439 505 34,900 -1,440 Descending Denver Center
02:47PM 39.8447 -99.9464 65° Northeast 439 505 33,500 -960 Descending Denver Center
02:48PM 39.8956 -99.8042 65° Northeast 435 501 33,000 -300 Descending Denver Center
02:49PM 39.9567 -99.6303 65° Northeast 440 506 33,000  Level Denver Center
02:50PM 40.0083 -99.4825 65° Northeast 449 517 33,000  Level Denver Center
02:51PM 40.0592 -99.3378 65° Northeast 441 507 33,000  Level Denver Center
02:52PM 40.1100 -99.1900 66° East 445 512 33,000  Level Denver Center
02:53PM 40.1611 -99.0436 65° Northeast 444 511 33,000  Level Denver Center
02:54PM 40.2117 -98.8961 66° East 445 512 33,000  Level Denver Center
02:55PM 40.2717 -98.7214 66° East 445 512 33,000  Level Minneapolis Center
02:57PM 40.3217 -98.5747 66° East 444 511 33,000 -900 Level Minneapolis Center
02:58PM 40.3797 -98.4014 66° East 438 504 31,000 -2,100 Descending Minneapolis Center
02:59PM 40.4281 -98.2553 66° East 438 504 28,600 -2,640 Descending Minneapolis Center
03:00PM 40.4900 -98.0725 66° East 454 522 25,500 -2,760 Descending Minneapolis Center
03:01PM 40.5378 -97.9278 66° East 442 509 22,900 -2,520 Descending Minneapolis Center
03:02PM 40.5839 -97.7897 66° East 422 486 20,300 -2,520 Descending Minneapolis Center
03:03PM 40.6269 -97.6594 66° East 399 459 17,700 -2,700 Descending Minneapolis Center
03:04PM 40.6475 -97.5228 79° East 366 421 15,100 -2,640 Descending Minneapolis Center
03:05PM 40.6889 -97.4011 66° East 367 422 12,600 -2,340 Descending Minneapolis Center
03:06PM 40.7250 -97.2933 66° East 326 375 10,400 -2,040 Descending Minneapolis Center
03:07PM 40.7731 -97.1817 60° Northeast 321 369 8,500 -1,860 Descending Minneapolis Center
03:08PM 40.8142 -97.0925 59° Northeast 315 362 6,900 -1,500 Descending Minneapolis Center
03:09PM 40.8550 -97.0003 60° Northeast 292 336 5,600 -1,380 Descending Minneapolis Center
03:10PM 40.8786 -96.9017 72° East 281 323 4,100 -1,680 Descending Minneapolis Center
03:11PM 40.8772 -96.8081 91° East 214 246 2,300 -1,020 Descending Minneapolis Center
03:12PM 40.8622 -96.7561 111° Southeast 225 259 1,700 -480 Descending Minneapolis Center
03:14PM 40.8500 -96.7500 180° South  Level FlightAware Approximate